sensor_id;sensor_type;location;lat;lon;timestamp;pressure;altitude;pressure_sealevel;temperature;humidity
13422;BME280;6782;55.904;13.396;2023-10-31T00:02:07;99874.97;;;7.16;nan
13422;BME280;6782;55.904;13.396;2023-10-31T00:04:56;99872.19;;;7.22;nan
13422;BME280;6782;55.904;13.396;2023-10-31T00:07:43;99874.75;;;7.25;nan
13422;BME280;6782;55.904;13.396;2023-10-31T00:10:30;99873.59;;;7.37;nan
13422;BME280;6782;55.904;13.396;2023-10-31T00:13:17;99880.16;;;7.54;nan
13422;BME280;6782;55.904;13.396;2023-10-31T00:16:04;99874.09;;;7.51;nan
13422;BME280;6782;55.904;13.396;2023-10-31T00:18:52;99870.75;;;7.46;nan
13422;BME280;6782;55.904;13.396;2023-10-31T00:21:40;99868.25;;;7.41;nan
13422;BME280;6782;55.904;13.396;2023-10-31T00:24:27;99860.00;;;7.55;nan
13422;BME280;6782;55.904;13.396;2023-10-31T00:27:14;99843.47;;;7.18;nan
13422;BME280;6782;55.904;13.396;2023-10-31T00:30:02;99829.03;;;7.00;nan
13422;BME280;6782;55.904;13.396;2023-10-31T00:32:49;99830.31;;;7.19;nan
13422;BME280;6782;55.904;13.396;2023-10-31T00:35:36;99820.09;;;7.09;nan
13422;BME280;6782;55.904;13.396;2023-10-31T00:38:24;99810.13;;;6.87;nan
13422;BME280;6782;55.904;13.396;2023-10-31T00:41:11;99814.44;;;6.88;nan
13422;BME280;6782;55.904;13.396;2023-10-31T00:43:59;99801.69;;;6.75;nan
13422;BME280;6782;55.904;13.396;2023-10-31T00:46:46;99820.47;;;6.92;nan
13422;BME280;6782;55.904;13.396;2023-10-31T00:49:33;99812.75;;;6.87;nan
13422;BME280;6782;55.904;13.396;2023-10-31T00:52:20;99802.97;;;6.94;nan
13422;BME280;6782;55.904;13.396;2023-10-31T00:55:08;99800.38;;;6.92;nan
13422;BME280;6782;55.904;13.396;2023-10-31T00:57:55;99814.75;;;7.13;nan
13422;BME280;6782;55.904;13.396;2023-10-31T01:00:42;99800.31;;;6.96;nan
13422;BME280;6782;55.904;13.396;2023-10-31T01:03:29;99808.38;;;7.22;nan
13422;BME280;6782;55.904;13.396;2023-10-31T01:06:16;99800.00;;;7.08;nan
13422;BME280;6782;55.904;13.396;2023-10-31T01:09:03;99793.34;;;6.94;nan
13422;BME280;6782;55.904;13.396;2023-10-31T01:11:52;99788.16;;;6.91;nan
13422;BME280;6782;55.904;13.396;2023-10-31T01:14:39;99811.19;;;7.16;nan
13422;BME280;6782;55.904;13.396;2023-10-31T01:17:26;99813.88;;;7.13;nan
13422;BME280;6782;55.904;13.396;2023-10-31T01:20:13;99818.81;;;7.25;nan
13422;BME280;6782;55.904;13.396;2023-10-31T01:23:00;99818.72;;;7.28;nan
13422;BME280;6782;55.904;13.396;2023-10-31T01:25:48;99817.84;;;7.29;nan
13422;BME280;6782;55.904;13.396;2023-10-31T01:28:36;99819.59;;;7.28;nan
13422;BME280;6782;55.904;13.396;2023-10-31T01:31:23;99840.28;;;7.74;nan
13422;BME280;6782;55.904;13.396;2023-10-31T01:34:10;99819.69;;;7.59;nan
13422;BME280;6782;55.904;13.396;2023-10-31T01:36:57;99812.16;;;7.45;nan
13422;BME280;6782;55.904;13.396;2023-10-31T01:39:44;99817.88;;;7.61;nan
13422;BME280;6782;55.904;13.396;2023-10-31T01:42:31;99833.22;;;7.76;nan
13422;BME280;6782;55.904;13.396;2023-10-31T01:45:20;99833.53;;;7.96;nan
13422;BME280;6782;55.904;13.396;2023-10-31T01:48:07;99817.53;;;7.73;nan
13422;BME280;6782;55.904;13.396;2023-10-31T01:50:54;99819.00;;;7.83;nan
13422;BME280;6782;55.904;13.396;2023-10-31T01:53:42;99812.16;;;7.79;nan
13422;BME280;6782;55.904;13.396;2023-10-31T01:56:29;99801.81;;;7.73;nan
13422;BME280;6782;55.904;13.396;2023-10-31T01:59:16;99805.28;;;7.74;nan
13422;BME280;6782;55.904;13.396;2023-10-31T02:02:05;99801.72;;;7.76;nan
13422;BME280;6782;55.904;13.396;2023-10-31T02:04:53;99812.06;;;7.82;nan
13422;BME280;6782;55.904;13.396;2023-10-31T02:07:44;99805.00;;;7.84;nan
13422;BME280;6782;55.904;13.396;2023-10-31T02:10:32;99810.97;;;7.91;nan
13422;BME280;6782;55.904;13.396;2023-10-31T02:13:19;99804.31;;;7.78;nan
13422;BME280;6782;55.904;13.396;2023-10-31T02:16:06;99811.31;;;7.77;nan
13422;BME280;6782;55.904;13.396;2023-10-31T02:18:55;99825.91;;;7.87;nan
13422;BME280;6782;55.904;13.396;2023-10-31T02:21:44;99831.09;;;7.90;nan
13422;BME280;6782;55.904;13.396;2023-10-31T02:24:31;99836.00;;;8.02;nan
13422;BME280;6782;55.904;13.396;2023-10-31T02:27:18;99840.25;;;8.06;nan
13422;BME280;6782;55.904;13.396;2023-10-31T02:30:06;99849.72;;;8.13;nan
13422;BME280;6782;55.904;13.396;2023-10-31T02:32:54;99833.47;;;7.99;nan
13422;BME280;6782;55.904;13.396;2023-10-31T02:35:41;99846.94;;;8.18;nan
13422;BME280;6782;55.904;13.396;2023-10-31T02:38:29;99856.38;;;8.27;nan
13422;BME280;6782;55.904;13.396;2023-10-31T02:41:17;99846.09;;;8.17;nan
13422;BME280;6782;55.904;13.396;2023-10-31T02:44:04;99837.59;;;8.08;nan
13422;BME280;6782;55.904;13.396;2023-10-31T02:46:51;99849.63;;;8.16;nan
13422;BME280;6782;55.904;13.396;2023-10-31T02:49:38;99853.88;;;8.20;nan
13422;BME280;6782;55.904;13.396;2023-10-31T02:52:25;99859.84;;;8.26;nan
13422;BME280;6782;55.904;13.396;2023-10-31T02:55:14;99861.44;;;8.33;nan
13422;BME280;6782;55.904;13.396;2023-10-31T02:58:01;99845.88;;;8.27;nan
13422;BME280;6782;55.904;13.396;2023-10-31T03:00:48;99853.56;;;8.33;nan
13422;BME280;6782;55.904;13.396;2023-10-31T03:03:35;99854.28;;;8.38;nan
13422;BME280;6782;55.904;13.396;2023-10-31T03:06:22;99855.22;;;8.37;nan
13422;BME280;6782;55.904;13.396;2023-10-31T03:09:09;99859.50;;;8.39;nan
13422;BME280;6782;55.904;13.396;2023-10-31T03:11:58;99866.38;;;8.43;nan
13422;BME280;6782;55.904;13.396;2023-10-31T03:14:45;99863.09;;;8.37;nan
13422;BME280;6782;55.904;13.396;2023-10-31T03:17:32;99865.28;;;8.50;nan
13422;BME280;6782;55.904;13.396;2023-10-31T03:20:19;99867.16;;;8.47;nan
13422;BME280;6782;55.904;13.396;2023-10-31T03:23:06;99879.41;;;8.77;nan
13422;BME280;6782;55.904;13.396;2023-10-31T03:25:53;99852.31;;;8.46;nan
13422;BME280;6782;55.904;13.396;2023-10-31T03:28:42;99846.38;;;8.39;nan
13422;BME280;6782;55.904;13.396;2023-10-31T03:31:30;99858.94;;;8.59;nan
13422;BME280;6782;55.904;13.396;2023-10-31T03:34:17;99843.44;;;8.50;nan
13422;BME280;6782;55.904;13.396;2023-10-31T03:37:04;99849.69;;;8.46;nan
13422;BME280;6782;55.904;13.396;2023-10-31T03:39:52;99852.31;;;8.46;nan
13422;BME280;6782;55.904;13.396;2023-10-31T03:42:39;99862.44;;;8.58;nan
13422;BME280;6782;55.904;13.396;2023-10-31T03:45:27;99849.75;;;8.43;nan
13422;BME280;6782;55.904;13.396;2023-10-31T03:48:15;99852.59;;;8.37;nan
13422;BME280;6782;55.904;13.396;2023-10-31T03:51:03;99855.31;;;8.32;nan
13422;BME280;6782;55.904;13.396;2023-10-31T03:53:50;99863.97;;;8.36;nan
13422;BME280;6782;55.904;13.396;2023-10-31T03:56:40;99861.44;;;8.33;nan
13422;BME280;6782;55.904;13.396;2023-10-31T03:59:27;99870.25;;;8.32;nan
13422;BME280;6782;55.904;13.396;2023-10-31T04:02:16;99886.38;;;8.49;nan
13422;BME280;6782;55.904;13.396;2023-10-31T04:05:03;99894.50;;;8.40;nan
13422;BME280;6782;55.904;13.396;2023-10-31T04:07:50;99892.28;;;8.25;nan
13422;BME280;6782;55.904;13.396;2023-10-31T04:10:37;99898.44;;;8.24;nan
13422;BME280;6782;55.904;13.396;2023-10-31T04:13:24;99914.50;;;8.45;nan
13422;BME280;6782;55.904;13.396;2023-10-31T04:16:11;99917.34;;;8.38;nan
13422;BME280;6782;55.904;13.396;2023-10-31T04:19:00;99926.59;;;8.51;nan
13422;BME280;6782;55.904;13.396;2023-10-31T04:21:47;99932.50;;;8.59;nan
13422;BME280;6782;55.904;13.396;2023-10-31T04:24:34;99926.53;;;8.54;nan
13422;BME280;6782;55.904;13.396;2023-10-31T04:27:22;99929.94;;;8.57;nan
13422;BME280;6782;55.904;13.396;2023-10-31T04:30:10;99942.00;;;8.64;nan
13422;BME280;6782;55.904;13.396;2023-10-31T04:32:57;99935.88;;;8.64;nan
13422;BME280;6782;55.904;13.396;2023-10-31T04:35:46;99944.13;;;8.81;nan
13422;BME280;6782;55.904;13.396;2023-10-31T04:38:36;99931.25;;;8.72;nan
13422;BME280;6782;55.904;13.396;2023-10-31T04:41:23;99940.88;;;8.73;nan
13422;BME280;6782;55.904;13.396;2023-10-31T04:44:10;99942.66;;;8.71;nan
13422;BME280;6782;55.904;13.396;2023-10-31T04:46:57;99946.03;;;8.76;nan
13422;BME280;6782;55.904;13.396;2023-10-31T04:49:45;99947.19;;;8.66;nan
13422;BME280;6782;55.904;13.396;2023-10-31T04:52:33;99942.00;;;8.64;nan
13422;BME280;6782;55.904;13.396;2023-10-31T04:55:20;99949.75;;;8.69;nan
13422;BME280;6782;55.904;13.396;2023-10-31T04:58:07;99963.16;;;8.89;nan
13422;BME280;6782;55.904;13.396;2023-10-31T05:00:55;99962.75;;;8.73;nan
13422;BME280;6782;55.904;13.396;2023-10-31T05:03:42;99963.63;;;8.74;nan
13422;BME280;6782;55.904;13.396;2023-10-31T05:06:29;99960.16;;;8.72;nan
13422;BME280;6782;55.904;13.396;2023-10-31T05:09:20;99958.44;;;8.71;nan
13422;BME280;6782;55.904;13.396;2023-10-31T05:12:09;99955.88;;;8.68;nan
13422;BME280;6782;55.904;13.396;2023-10-31T05:14:56;99962.06;;;8.67;nan
13422;BME280;6782;55.904;13.396;2023-10-31T05:17:43;99964.69;;;8.67;nan
13422;BME280;6782;55.904;13.396;2023-10-31T05:20:30;99962.06;;;8.67;nan
13422;BME280;6782;55.904;13.396;2023-10-31T05:23:18;99972.16;;;8.82;nan
13422;BME280;6782;55.904;13.396;2023-10-31T05:26:08;99966.31;;;8.71;nan
13422;BME280;6782;55.904;13.396;2023-10-31T05:28:58;99969.66;;;8.77;nan
13422;BME280;6782;55.904;13.396;2023-10-31T05:31:46;99969.81;;;8.71;nan
13422;BME280;6782;55.904;13.396;2023-10-31T05:34:33;99968.13;;;8.70;nan
13422;BME280;6782;55.904;13.396;2023-10-31T05:37:20;99979.16;;;8.81;nan
13422;BME280;6782;55.904;13.396;2023-10-31T05:40:08;99986.28;;;8.78;nan
13422;BME280;6782;55.904;13.396;2023-10-31T05:42:57;99992.22;;;8.85;nan
13422;BME280;6782;55.904;13.396;2023-10-31T05:45:44;99995.53;;;8.91;nan
13422;BME280;6782;55.904;13.396;2023-10-31T05:48:31;100001.63;;;8.93;nan
13422;BME280;6782;55.904;13.396;2023-10-31T05:51:19;100008.44;;;9.00;nan
13422;BME280;6782;55.904;13.396;2023-10-31T05:54:07;100010.94;;;9.05;nan
13422;BME280;6782;55.904;13.396;2023-10-31T05:56:54;100008.28;;;9.06;nan
13422;BME280;6782;55.904;13.396;2023-10-31T05:59:43;100010.06;;;9.04;nan
13422;BME280;6782;55.904;13.396;2023-10-31T06:02:30;100024.72;;;9.13;nan
13422;BME280;6782;55.904;13.396;2023-10-31T06:05:17;100019.31;;;9.17;nan
13422;BME280;6782;55.904;13.396;2023-10-31T06:08:04;100038.56;;;9.49;nan
13422;BME280;6782;55.904;13.396;2023-10-31T06:10:51;100028.50;;;9.33;nan
13422;BME280;6782;55.904;13.396;2023-10-31T06:13:38;100020.88;;;9.24;nan
13422;BME280;6782;55.904;13.396;2023-10-31T06:16:26;100030.97;;;9.38;nan
13422;BME280;6782;55.904;13.396;2023-10-31T06:19:13;100016.16;;;9.35;nan
13422;BME280;6782;55.904;13.396;2023-10-31T06:22:00;100011.84;;;9.33;nan
13422;BME280;6782;55.904;13.396;2023-10-31T06:24:47;100018.06;;;9.30;nan
13422;BME280;6782;55.904;13.396;2023-10-31T06:27:37;100024.03;;;9.35;nan
13422;BME280;6782;55.904;13.396;2023-10-31T06:30:24;100046.28;;;9.55;nan
13422;BME280;6782;55.904;13.396;2023-10-31T06:33:12;100030.03;;;9.40;nan
13422;BME280;6782;55.904;13.396;2023-10-31T06:36:00;100031.75;;;9.41;nan
13422;BME280;6782;55.904;13.396;2023-10-31T06:38:47;100042.09;;;9.48;nan
13422;BME280;6782;55.904;13.396;2023-10-31T06:41:36;100036.94;;;9.44;nan
13422;BME280;6782;55.904;13.396;2023-10-31T06:44:23;100034.56;;;9.35;nan
13422;BME280;6782;55.904;13.396;2023-10-31T06:47:13;100061.53;;;9.43;nan
13422;BME280;6782;55.904;13.396;2023-10-31T06:50:02;100061.34;;;9.50;nan
13422;BME280;6782;55.904;13.396;2023-10-31T06:52:52;100050.09;;;9.44;nan
13422;BME280;6782;55.904;13.396;2023-10-31T06:55:39;100054.50;;;9.44;nan
13422;BME280;6782;55.904;13.396;2023-10-31T06:58:26;100054.44;;;9.45;nan
13422;BME280;6782;55.904;13.396;2023-10-31T07:01:14;100049.00;;;9.52;nan
13422;BME280;6782;55.904;13.396;2023-10-31T07:04:04;100062.09;;;9.53;nan
13422;BME280;6782;55.904;13.396;2023-10-31T07:06:53;100067.97;;;9.63;nan
13422;BME280;6782;55.904;13.396;2023-10-31T07:09:43;100079.34;;;9.63;nan
13422;BME280;6782;55.904;13.396;2023-10-31T07:12:30;100071.50;;;9.62;nan
13422;BME280;6782;55.904;13.396;2023-10-31T07:15:17;100068.94;;;9.60;nan
13422;BME280;6782;55.904;13.396;2023-10-31T07:18:04;100078.38;;;9.66;nan
13422;BME280;6782;55.904;13.396;2023-10-31T07:20:52;100073.31;;;9.60;nan
13422;BME280;6782;55.904;13.396;2023-10-31T07:23:41;100062.72;;;9.63;nan
13422;BME280;6782;55.904;13.396;2023-10-31T07:26:29;100071.81;;;9.80;nan
13422;BME280;6782;55.904;13.396;2023-10-31T07:29:17;100072.78;;;9.78;nan
13422;BME280;6782;55.904;13.396;2023-10-31T07:32:04;100071.72;;;9.83;nan
13422;BME280;6782;55.904;13.396;2023-10-31T07:34:51;100079.47;;;9.88;nan
13422;BME280;6782;55.904;13.396;2023-10-31T07:37:38;100074.38;;;9.82;nan
13422;BME280;6782;55.904;13.396;2023-10-31T07:40:26;100087.69;;;9.77;nan
13422;BME280;6782;55.904;13.396;2023-10-31T07:43:14;100091.72;;;9.89;nan
13422;BME280;6782;55.904;13.396;2023-10-31T07:46:01;100089.22;;;9.84;nan
13422;BME280;6782;55.904;13.396;2023-10-31T07:48:48;100086.66;;;9.83;nan
13422;BME280;6782;55.904;13.396;2023-10-31T07:51:35;100083.16;;;9.82;nan
13422;BME280;6782;55.904;13.396;2023-10-31T07:54:22;100090.81;;;9.90;nan
13422;BME280;6782;55.904;13.396;2023-10-31T07:57:11;100090.81;;;9.90;nan
13422;BME280;6782;55.904;13.396;2023-10-31T07:59:58;100096.72;;;9.98;nan
13422;BME280;6782;55.904;13.396;2023-10-31T08:02:45;100112.06;;;10.13;nan
13422;BME280;6782;55.904;13.396;2023-10-31T08:05:32;100103.59;;;10.02;nan
13422;BME280;6782;55.904;13.396;2023-10-31T08:08:19;100114.13;;;10.02;nan
13422;BME280;6782;55.904;13.396;2023-10-31T08:11:07;100117.47;;;10.07;nan
13422;BME280;6782;55.904;13.396;2023-10-31T08:13:57;100112.22;;;10.07;nan
13422;BME280;6782;55.904;13.396;2023-10-31T08:16:44;100121.72;;;10.14;nan
13422;BME280;6782;55.904;13.396;2023-10-31T08:19:31;100118.13;;;10.15;nan
13422;BME280;6782;55.904;13.396;2023-10-31T08:22:18;100111.97;;;10.16;nan
13422;BME280;6782;55.904;13.396;2023-10-31T08:25:06;100109.34;;;10.16;nan
13422;BME280;6782;55.904;13.396;2023-10-31T08:27:54;100098.03;;;10.13;nan
13422;BME280;6782;55.904;13.396;2023-10-31T08:30:42;100099.66;;;10.17;nan
13422;BME280;6782;55.904;13.396;2023-10-31T08:33:30;100114.31;;;10.25;nan
13422;BME280;6782;55.904;13.396;2023-10-31T08:36:17;100118.75;;;10.23;nan
13422;BME280;6782;55.904;13.396;2023-10-31T08:39:04;100122.22;;;10.25;nan
13422;BME280;6782;55.904;13.396;2023-10-31T08:41:51;100127.38;;;10.28;nan
13422;BME280;6782;55.904;13.396;2023-10-31T08:44:40;100120.28;;;10.30;nan
13422;BME280;6782;55.904;13.396;2023-10-31T08:47:28;100126.25;;;10.35;nan
13422;BME280;6782;55.904;13.396;2023-10-31T08:50:16;100127.09;;;10.37;nan
13422;BME280;6782;55.904;13.396;2023-10-31T08:53:03;100137.94;;;10.54;nan
13422;BME280;6782;55.904;13.396;2023-10-31T08:55:50;100122.56;;;10.41;nan
13422;BME280;6782;55.904;13.396;2023-10-31T08:58:37;100129.28;;;10.51;nan
13422;BME280;6782;55.904;13.396;2023-10-31T09:01:24;100125.75;;;10.50;nan
13422;BME280;6782;55.904;13.396;2023-10-31T09:04:12;100118.06;;;10.44;nan
13422;BME280;6782;55.904;13.396;2023-10-31T09:07:00;100119.75;;;10.47;nan
13422;BME280;6782;55.904;13.396;2023-10-31T09:09:47;100116.16;;;10.49;nan
13422;BME280;6782;55.904;13.396;2023-10-31T09:12:34;100116.59;;;10.62;nan
13422;BME280;6782;55.904;13.396;2023-10-31T09:15:22;100109.25;;;10.45;nan
13422;BME280;6782;55.904;13.396;2023-10-31T09:18:09;100109.03;;;10.51;nan
13422;BME280;6782;55.904;13.396;2023-10-31T09:20:58;100117.56;;;10.59;nan
13422;BME280;6782;55.904;13.396;2023-10-31T09:23:45;100116.97;;;10.51;nan
13422;BME280;6782;55.904;13.396;2023-10-31T09:26:32;100114.22;;;10.54;nan
13422;BME280;6782;55.904;13.396;2023-10-31T09:29:19;100107.22;;;10.53;nan
13422;BME280;6782;55.904;13.396;2023-10-31T09:32:06;100111.41;;;10.60;nan
13422;BME280;6782;55.904;13.396;2023-10-31T09:34:53;100100.97;;;10.56;nan
13422;BME280;6782;55.904;13.396;2023-10-31T09:37:42;100095.06;;;10.49;nan
13422;BME280;6782;55.904;13.396;2023-10-31T09:40:29;100091.41;;;10.53;nan
13422;BME280;6782;55.904;13.396;2023-10-31T09:43:16;100088.06;;;10.48;nan
13422;BME280;6782;55.904;13.396;2023-10-31T09:46:05;100084.00;;;10.38;nan
13422;BME280;6782;55.904;13.396;2023-10-31T09:48:52;100087.31;;;10.45;nan
13422;BME280;6782;55.904;13.396;2023-10-31T09:51:39;100081.34;;;10.40;nan
13422;BME280;6782;55.904;13.396;2023-10-31T09:54:28;100071.69;;;10.39;nan
13422;BME280;6782;55.904;13.396;2023-10-31T09:57:16;100072.66;;;10.36;nan
13422;BME280;6782;55.904;13.396;2023-10-31T10:00:05;100066.78;;;10.28;nan
13422;BME280;6782;55.904;13.396;2023-10-31T10:02:54;100069.50;;;10.25;nan
13422;BME280;6782;55.904;13.396;2023-10-31T10:05:43;100060.78;;;10.23;nan
13422;BME280;6782;55.904;13.396;2023-10-31T10:08:31;100052.00;;;10.24;nan
13422;BME280;6782;55.904;13.396;2023-10-31T10:11:20;100048.84;;;10.13;nan
13422;BME280;6782;55.904;13.396;2023-10-31T10:14:07;100049.28;;;10.26;nan
13422;BME280;6782;55.904;13.396;2023-10-31T10:16:56;100040.69;;;10.21;nan
13422;BME280;6782;55.904;13.396;2023-10-31T10:19:43;100030.91;;;10.24;nan
13422;BME280;6782;55.904;13.396;2023-10-31T10:22:30;100025.63;;;10.24;nan
13422;BME280;6782;55.904;13.396;2023-10-31T10:25:18;100019.69;;;10.18;nan
13422;BME280;6782;55.904;13.396;2023-10-31T10:28:07;100016.97;;;10.21;nan
13422;BME280;6782;55.904;13.396;2023-10-31T10:30:58;100022.88;;;10.27;nan
13422;BME280;6782;55.904;13.396;2023-10-31T10:33:45;100015.13;;;10.23;nan
13422;BME280;6782;55.904;13.396;2023-10-31T10:36:33;100010.03;;;10.18;nan
13422;BME280;6782;55.904;13.396;2023-10-31T10:39:22;100012.50;;;10.23;nan
13422;BME280;6782;55.904;13.396;2023-10-31T10:42:10;100007.28;;;10.21;nan
13422;BME280;6782;55.904;13.396;2023-10-31T10:45:02;100011.53;;;10.25;nan
13422;BME280;6782;55.904;13.396;2023-10-31T10:47:50;100012.84;;;10.38;nan
13422;BME280;6782;55.904;13.396;2023-10-31T10:50:42;100007.47;;;10.41;nan
13422;BME280;6782;55.904;13.396;2023-10-31T10:53:34;100002.19;;;10.41;nan
13422;BME280;6782;55.904;13.396;2023-10-31T10:56:26;99999.75;;;10.35;nan
13422;BME280;6782;55.904;13.396;2023-10-31T10:59:19;99989.19;;;10.37;nan
13422;BME280;6782;55.904;13.396;2023-10-31T11:02:09;99997.53;;;10.49;nan
13422;BME280;6782;55.904;13.396;2023-10-31T11:04:58;99982.84;;;10.42;nan
13422;BME280;6782;55.904;13.396;2023-10-31T11:07:47;99997.28;;;10.55;nan
13422;BME280;6782;55.904;13.396;2023-10-31T11:10:35;99987.88;;;10.48;nan
13422;BME280;6782;55.904;13.396;2023-10-31T11:13:24;99981.22;;;10.38;nan
13422;BME280;6782;55.904;13.396;2023-10-31T11:16:17;99982.84;;;10.42;nan
13422;BME280;6782;55.904;13.396;2023-10-31T11:19:07;99975.91;;;10.40;nan
13422;BME280;6782;55.904;13.396;2023-10-31T11:21:58;99980.25;;;10.41;nan
13422;BME280;6782;55.904;13.396;2023-10-31T11:24:45;99964.75;;;10.32;nan
13422;BME280;6782;55.904;13.396;2023-10-31T11:27:34;99965.66;;;10.31;nan
13422;BME280;6782;55.904;13.396;2023-10-31T11:30:22;99962.25;;;10.27;nan
13422;BME280;6782;55.904;13.396;2023-10-31T11:33:14;99962.16;;;10.30;nan
13422;BME280;6782;55.904;13.396;2023-10-31T11:36:04;99954.16;;;10.33;nan
13422;BME280;6782;55.904;13.396;2023-10-31T11:39:09;99948.38;;;10.22;nan
13422;BME280;6782;55.904;13.396;2023-10-31T11:41:59;99947.31;;;10.28;nan
13422;BME280;6782;55.904;13.396;2023-10-31T11:44:54;99938.41;;;10.32;nan
13422;BME280;6782;55.904;13.396;2023-10-31T11:47:47;99936.03;;;10.24;nan
13422;BME280;6782;55.904;13.396;2023-10-31T11:50:36;99935.13;;;10.25;nan
13422;BME280;6782;55.904;13.396;2023-10-31T11:53:25;99928.25;;;10.21;nan
13422;BME280;6782;55.904;13.396;2023-10-31T11:56:13;99933.44;;;10.23;nan
13422;BME280;6782;55.904;13.396;2023-10-31T11:59:02;99921.06;;;10.25;nan
13422;BME280;6782;55.904;13.396;2023-10-31T12:01:50;99934.22;;;10.26;nan
13422;BME280;6782;55.904;13.396;2023-10-31T12:04:37;99929.13;;;10.20;nan
13422;BME280;6782;55.904;13.396;2023-10-31T12:07:24;99930.78;;;10.24;nan
13422;BME280;6782;55.904;13.396;2023-10-31T12:10:15;99937.44;;;10.34;nan
13422;BME280;6782;55.904;13.396;2023-10-31T12:13:12;99929.66;;;10.30;nan
13422;BME280;6782;55.904;13.396;2023-10-31T12:16:00;99927.44;;;10.19;nan
13422;BME280;6782;55.904;13.396;2023-10-31T12:18:54;99930.59;;;10.29;nan
13422;BME280;6782;55.904;13.396;2023-10-31T12:21:42;99935.06;;;10.27;nan
13422;BME280;6782;55.904;13.396;2023-10-31T12:24:29;99928.94;;;10.26;nan
13422;BME280;6782;55.904;13.396;2023-10-31T12:27:18;99936.69;;;10.31;nan
13422;BME280;6782;55.904;13.396;2023-10-31T12:30:07;99929.63;;;10.31;nan
13422;BME280;6782;55.904;13.396;2023-10-31T12:32:55;99924.63;;;10.24;nan
13422;BME280;6782;55.904;13.396;2023-10-31T12:35:43;99925.38;;;10.27;nan
13422;BME280;6782;55.904;13.396;2023-10-31T12:38:31;99925.81;;;10.15;nan
13422;BME280;6782;55.904;13.396;2023-10-31T12:41:18;99930.00;;;10.21;nan
13422;BME280;6782;55.904;13.396;2023-10-31T12:44:08;99930.81;;;10.23;nan
13422;BME280;6782;55.904;13.396;2023-10-31T12:46:56;99928.41;;;10.17;nan
13422;BME280;6782;55.904;13.396;2023-10-31T12:49:43;99924.19;;;10.11;nan
13422;BME280;6782;55.904;13.396;2023-10-31T12:52:45;99935.53;;;10.13;nan
13422;BME280;6782;55.904;13.396;2023-10-31T12:55:38;99929.53;;;10.08;nan
13422;BME280;6782;55.904;13.396;2023-10-31T12:58:25;99926.22;;;10.03;nan
13422;BME280;6782;55.904;13.396;2023-10-31T13:01:14;99934.69;;;10.13;nan
13422;BME280;6782;55.904;13.396;2023-10-31T13:04:04;99932.97;;;10.10;nan
13422;BME280;6782;55.904;13.396;2023-10-31T13:06:55;99927.78;;;10.08;nan
13422;BME280;6782;55.904;13.396;2023-10-31T13:09:42;99934.72;;;10.11;nan
13422;BME280;6782;55.904;13.396;2023-10-31T13:12:32;99941.72;;;10.12;nan
13422;BME280;6782;55.904;13.396;2023-10-31T13:15:21;99931.50;;;10.01;nan
13422;BME280;6782;55.904;13.396;2023-10-31T13:18:11;99933.31;;;10.01;nan
13422;BME280;6782;55.904;13.396;2023-10-31T13:20:59;99940.97;;;10.07;nan
13422;BME280;6782;55.904;13.396;2023-10-31T13:23:46;99943.72;;;10.04;nan
13422;BME280;6782;55.904;13.396;2023-10-31T13:26:34;99945.22;;;10.13;nan
13422;BME280;6782;55.904;13.396;2023-10-31T13:29:22;99934.91;;;10.05;nan
13422;BME280;6782;55.904;13.396;2023-10-31T13:32:10;99943.63;;;10.07;nan
13422;BME280;6782;55.904;13.396;2023-10-31T13:34:59;99929.53;;;10.08;nan
13422;BME280;6782;55.904;13.396;2023-10-31T13:37:46;99940.81;;;10.13;nan
13422;BME280;6782;55.904;13.396;2023-10-31T13:40:33;99953.03;;;10.16;nan
13422;BME280;6782;55.904;13.396;2023-10-31T13:43:20;99946.47;;;10.01;nan
13422;BME280;6782;55.904;13.396;2023-10-31T13:46:07;99950.63;;;10.08;nan
13422;BME280;6782;55.904;13.396;2023-10-31T13:48:55;99950.53;;;10.11;nan
13422;BME280;6782;55.904;13.396;2023-10-31T13:51:47;99954.16;;;10.07;nan
13422;BME280;6782;55.904;13.396;2023-10-31T13:54:35;99962.97;;;10.06;nan
13422;BME280;6782;55.904;13.396;2023-10-31T13:57:22;99958.59;;;10.06;nan
13422;BME280;6782;55.904;13.396;2023-10-31T14:00:10;99959.66;;;10.01;nan
13422;BME280;6782;55.904;13.396;2023-10-31T14:02:57;99960.53;;;10.00;nan
13422;BME280;6782;55.904;13.396;2023-10-31T14:05:44;99952.75;;;9.97;nan
13422;BME280;6782;55.904;13.396;2023-10-31T14:08:35;99965.75;;;10.01;nan
13422;BME280;6782;55.904;13.396;2023-10-31T14:11:22;99958.88;;;9.97;nan
13422;BME280;6782;55.904;13.396;2023-10-31T14:14:09;99959.59;;;10.02;nan
13422;BME280;6782;55.904;13.396;2023-10-31T14:16:58;99967.53;;;10.01;nan
13422;BME280;6782;55.904;13.396;2023-10-31T14:19:45;99958.25;;;9.89;nan
13422;BME280;6782;55.904;13.396;2023-10-31T14:22:32;99956.81;;;9.81;nan
13422;BME280;6782;55.904;13.396;2023-10-31T14:25:21;99962.63;;;9.90;nan
13422;BME280;6782;55.904;13.396;2023-10-31T14:28:08;99961.75;;;9.90;nan
13422;BME280;6782;55.904;13.396;2023-10-31T14:30:55;99953.34;;;9.79;nan
13422;BME280;6782;55.904;13.396;2023-10-31T14:33:43;99961.75;;;9.90;nan
13422;BME280;6782;55.904;13.396;2023-10-31T14:36:30;99958.44;;;9.85;nan
13422;BME280;6782;55.904;13.396;2023-10-31T14:39:17;99965.44;;;9.86;nan
13422;BME280;6782;55.904;13.396;2023-10-31T14:42:06;99959.94;;;9.92;nan
13422;BME280;6782;55.904;13.396;2023-10-31T14:44:53;99974.13;;;9.88;nan
13422;BME280;6782;55.904;13.396;2023-10-31T14:47:42;99975.66;;;9.95;nan
13422;BME280;6782;55.904;13.396;2023-10-31T14:50:29;99972.31;;;9.90;nan
13422;BME280;6782;55.904;13.396;2023-10-31T14:53:16;99975.84;;;9.89;nan
13422;BME280;6782;55.904;13.396;2023-10-31T14:56:05;99966.31;;;9.85;nan
13422;BME280;6782;55.904;13.396;2023-10-31T14:58:53;99982.03;;;9.88;nan
13422;BME280;6782;55.904;13.396;2023-10-31T15:01:40;99989.84;;;9.91;nan
13422;BME280;6782;55.904;13.396;2023-10-31T15:04:28;99988.44;;;9.79;nan
13422;BME280;6782;55.904;13.396;2023-10-31T15:07:15;99992.03;;;9.77;nan
13422;BME280;6782;55.904;13.396;2023-10-31T15:10:02;99988.50;;;9.78;nan
13422;BME280;6782;55.904;13.396;2023-10-31T15:12:49;99984.38;;;9.69;nan
13422;BME280;6782;55.904;13.396;2023-10-31T15:15:38;99984.47;;;9.66;nan
13422;BME280;6782;55.904;13.396;2023-10-31T15:18:25;99973.47;;;9.54;nan